Bloom City, Wisconsin
Current Conditions -  °F | °C
As of 4:35 PM on Wednesday 22 Oct 2014 (Local Time) from KC35 Reporting Station
Clear Clear  
Wind Chill: 57°   Ceiling: Unl
Heat Index: 57°   Visibility: 10mi
Dew Point: 37°   Wind: 7mph
Humidity: 46%   Direction: 170°S
Pressure: 30.22"   Gusts: NA
Location:  43.6121°N, 90.3998°W
Report Text: KC35 222135Z AUTO 17006KT 10SM CLR 14/03 A3022 RMK AO2 T01410025
Loading
Personal Weather Stations






























Interactive Weather Map New forecast layout! Learn more

10-Day Weather Forecast

Advertisements
Track Severe Weather on mobile